»·PEaware :: N803MJ KPSP-L71

N803MJ :: KPSP-L71

FLIGHT INFORMATION

Flight Status: Arrived
Operator: Privately registered:
United States
More flights under this callsign
Pilot: Matt C. (2277)
Aircraft: CESSNA 208 CARAVAN
(C208)
More flights by this aircraft type
Origin: KPSP Palm Springs Intl
United States
Destination: L71 California City Mun
United States
More flights between these airports :: More routes between these airports
Route: +CATH1 PSP V386 PMD ROSIE
File this flight plan on PilotEdge
Remarks:
Altitude:
(Current/Filed)
14,000ft
Speed:
(Current/Filed)
180kts
Departed: 02-Dec-13 09:36 PM
Arrived: 02-Dec-13 10:29 PM
Distance/Time
Traveled:
109nm/0:53
Distance/Time
To Go:
Arrived

Flight Plot

Page will automatically refresh every two minutes.


Map Options




Map Legend


Flown Route
Filed Route
Departure Airport
Arrival Airport
Navaid (VOR, NDB)
Fix

Horizontal Profiles

Position Reports

Time Latitude Longitude Heading Altitude Ground
Speed
02-Dec-13 21:07 33.821239 -116.507044 92 482ft 0kts
02-Dec-13 21:08 33.821239 -116.507041 92 482ft 0kts
02-Dec-13 21:09 33.821239 -116.507038 92 482ft 0kts
02-Dec-13 21:10 33.821239 -116.507034 92 482ft 0kts
02-Dec-13 21:11 33.821238 -116.507030 92 482ft 0kts
02-Dec-13 21:12 33.821238 -116.507027 92 482ft 0kts
02-Dec-13 21:13 33.821238 -116.507025 92 482ft 0kts
02-Dec-13 21:14 33.821238 -116.507021 92 482ft 0kts
02-Dec-13 21:15 33.821238 -116.507018 92 482ft 0kts
02-Dec-13 21:16 33.821238 -116.507015 92 482ft 0kts
02-Dec-13 21:17 33.821238 -116.507012 92 482ft 0kts
02-Dec-13 21:18 33.821237 -116.507008 92 482ft 0kts
02-Dec-13 21:19 33.821237 -116.507005 92 482ft 0kts
02-Dec-13 21:20 33.821237 -116.507001 92 482ft 0kts
02-Dec-13 21:21 33.821237 -116.506998 92 482ft 0kts
02-Dec-13 21:22 33.821237 -116.506995 92 482ft 0kts
02-Dec-13 21:23 33.821237 -116.506992 92 482ft 0kts
02-Dec-13 21:24 33.821237 -116.506989 92 482ft 0kts
02-Dec-13 21:25 33.821237 -116.506985 92 482ft 0kts
02-Dec-13 21:26 33.821236 -116.506982 92 482ft 0kts
02-Dec-13 21:27 33.821236 -116.506979 92 482ft 0kts
02-Dec-13 21:28 33.821236 -116.506976 92 482ft 0kts
02-Dec-13 21:29 33.821236 -116.506973 92 482ft 0kts
02-Dec-13 21:30 33.821236 -116.506970 92 482ft 0kts
02-Dec-13 21:31 33.819088 -116.505494 134 482ft 24kts
02-Dec-13 21:32 33.817637 -116.497955 55 482ft 0kts
02-Dec-13 21:33 33.817644 -116.497942 55 482ft 0kts
02-Dec-13 21:34 33.817847 -116.497661 29 482ft 13kts
02-Dec-13 21:35 33.836973 -116.515557 322 1717ft 111kts
02-Dec-13 21:36 33.860326 -116.539748 320 3949ft 120kts
02-Dec-13 21:37 33.870806 -116.521352 89 5855ft 133kts
02-Dec-13 21:38 33.863223 -116.473408 98 7435ft 159kts
02-Dec-13 21:39 33.876457 -116.430899 358 8913ft 147kts
02-Dec-13 21:40 33.914603 -116.446768 341 10432ft 144kts
02-Dec-13 21:41 33.952652 -116.461992 342 11926ft 143kts
02-Dec-13 21:42 33.988879 -116.476205 342 13672ft 131kts
02-Dec-13 21:43 34.029809 -116.492117 342 14014ft 179kts
02-Dec-13 21:44 34.077894 -116.510933 342 13998ft 181kts
02-Dec-13 21:45 34.126089 -116.529804 342 14000ft 182kts
02-Dec-13 21:46 34.174106 -116.548633 343 14000ft 181kts
02-Dec-13 21:47 34.222585 -116.567668 342 14001ft 185kts
02-Dec-13 21:48 34.272121 -116.587146 343 14000ft 187kts
02-Dec-13 21:49 34.321860 -116.606726 342 14000ft 187kts
02-Dec-13 21:50 34.371526 -116.626306 342 14000ft 187kts
02-Dec-13 21:51 34.421160 -116.645892 342 13998ft 187kts
02-Dec-13 21:52 34.470943 -116.665576 342 13999ft 187kts
02-Dec-13 21:53 34.505928 -116.705778 281 14016ft 195kts
02-Dec-13 21:54 34.512349 -116.771828 280 14000ft 197kts
02-Dec-13 21:55 34.518648 -116.837892 279 13999ft 197kts
02-Dec-13 21:56 34.525033 -116.904015 279 14000ft 197kts
02-Dec-13 21:57 34.531385 -116.970124 279 14000ft 197kts
02-Dec-13 21:58 34.537714 -117.036236 279 14000ft 196kts
02-Dec-13 21:59 34.544008 -117.102348 279 14000ft 197kts
02-Dec-13 22:00 34.550278 -117.168494 279 14000ft 197kts
02-Dec-13 22:01 34.556503 -117.234617 279 13999ft 197kts
02-Dec-13 22:02 34.562693 -117.300802 280 14000ft 197kts
02-Dec-13 22:03 34.568838 -117.366976 279 14000ft 197kts
02-Dec-13 22:04 34.574946 -117.433025 279 14078ft 193kts
02-Dec-13 22:05 34.580933 -117.498053 279 14266ft 194kts
02-Dec-13 22:06 34.586951 -117.564048 280 14267ft 197kts
02-Dec-13 22:07 34.593197 -117.632633 277 13212ft 205kts
02-Dec-13 22:08 34.599216 -117.699554 279 11408ft 196kts
02-Dec-13 22:09 34.605006 -117.764609 279 9640ft 189kts
02-Dec-13 22:10 34.610622 -117.827364 280 8349ft 181kts
02-Dec-13 22:11 34.616203 -117.890006 279 8266ft 184kts
02-Dec-13 22:12 34.621635 -117.951761 279 8267ft 182kts
02-Dec-13 22:13 34.627115 -118.014429 279 8267ft 187kts
02-Dec-13 22:14 34.644199 -118.069964 326 8291ft 179kts
02-Dec-13 22:15 34.687592 -118.099886 333 8265ft 175kts
02-Dec-13 22:16 34.723275 -118.122961 333 8267ft 174kts
02-Dec-13 22:17 34.766138 -118.150623 333 8266ft 174kts
02-Dec-13 22:18 34.809014 -118.178324 333 8266ft 174kts
02-Dec-13 22:19 34.852762 -118.201948 6 8255ft 172kts
02-Dec-13 22:20 34.896802 -118.178307 25 8267ft 174kts
02-Dec-13 22:21 34.939856 -118.151091 26 8266ft 174kts
02-Dec-13 22:22 34.982843 -118.123832 26 8268ft 173kts
02-Dec-13 22:23 35.025910 -118.096539 25 8168ft 178kts
02-Dec-13 22:24 35.073114 -118.074315 16 6948ft 175kts
02-Dec-13 22:25 35.113554 -118.059835 13 5825ft 104kts
02-Dec-13 22:26 35.137525 -118.051953 22 4110ft 86kts
02-Dec-13 22:27 35.148931 -118.027764 69 2571ft 87kts
02-Dec-13 22:28 35.150457 -118.014112 154 2459ft 0kts

Navigation Log

Ident Type
1. KPSP Airport
2. EMRUD Fix
3. PSP Navaid
4. PSP Navaid
5. YUCCA Fix
6. OKACO Fix
7. SOGGI Fix
8. APLES Fix
9. ZOREN Fix
10. PMD Navaid
11. ROSIE Navaid
12. L71 Airport